地図

経路データ

SID SEASON NUMBER BASIN SUBBASIN NAME ISO_TIME NATURE LAT LON WMO_WIND WMO_PRES WMO_AGENCY TRACK_TYPE DIST2LAND LANDFALL IFLAG USA_AGENCY USA_ATCF_ID USA_LAT USA_LON USA_RECORD USA_STATUS USA_WIND USA_PRES USA_SSHS USA_R34_NE USA_R34_SE USA_R34_SW USA_R34_NW USA_R50_NE USA_R50_SE USA_R50_SW USA_R50_NW USA_R64_NE USA_R64_SE USA_R64_SW USA_R64_NW USA_POCI USA_ROCI USA_RMW USA_EYE TOKYO_LAT TOKYO_LON TOKYO_GRADE TOKYO_WIND TOKYO_PRES TOKYO_R50_DIR TOKYO_R50_LONG TOKYO_R50_SHORT TOKYO_R30_DIR TOKYO_R30_LONG TOKYO_R30_SHORT TOKYO_LAND CMA_LAT CMA_LON CMA_CAT CMA_WIND CMA_PRES HKO_LAT HKO_LON HKO_CAT HKO_WIND HKO_PRES NEWDELHI_LAT NEWDELHI_LON NEWDELHI_GRADE NEWDELHI_WIND NEWDELHI_PRES NEWDELHI_CI NEWDELHI_DP NEWDELHI_POCI REUNION_LAT REUNION_LON REUNION_TYPE REUNION_WIND REUNION_PRES REUNION_TNUM REUNION_CI REUNION_RMW REUNION_R34_NE REUNION_R34_SE REUNION_R34_SW REUNION_R34_NW REUNION_R50_NE REUNION_R50_SE REUNION_R50_SW REUNION_R50_NW REUNION_R64_NE REUNION_R64_SE REUNION_R64_SW REUNION_R64_NW BOM_LAT BOM_LON BOM_TYPE BOM_WIND BOM_PRES BOM_TNUM BOM_CI BOM_RMW BOM_R34_NE BOM_R34_SE BOM_R34_SW BOM_R34_NW BOM_R50_NE BOM_R50_SE BOM_R50_SW BOM_R50_NW BOM_R64_NE BOM_R64_SE BOM_R64_SW BOM_R64_NW BOM_ROCI BOM_POCI BOM_EYE BOM_POS_METHOD BOM_PRES_METHOD NADI_LAT NADI_LON NADI_CAT NADI_WIND NADI_PRES WELLINGTON_LAT WELLINGTON_LON WELLINGTON_WIND WELLINGTON_PRES DS824_LAT DS824_LON DS824_STAGE DS824_WIND DS824_PRES TD9636_LAT TD9636_LON TD9636_STAGE TD9636_WIND TD9636_PRES TD9635_LAT TD9635_LON TD9635_WIND TD9635_PRES TD9635_ROCI NEUMANN_LAT NEUMANN_LON NEUMANN_CLASS NEUMANN_WIND NEUMANN_PRES MLC_LAT MLC_LON MLC_CLASS MLC_WIND MLC_PRES USA_GUST BOM_GUST BOM_GUST_PER REUNION_GUST REUNION_GUST_PER USA_SEAHGT USA_SEARAD_NE USA_SEARAD_SE USA_SEARAD_SW USA_SEARAD_NW STORM_SPEED STORM_DIR
1981096S14059 1981 27 SI MM LISA 1981-04-06 00:00:00 TS -14.3000 58.6000 main 656 646 O_________O_O_ jtwc_sh SH281981 -14.3000 58.6000 20 -1 -14.3000 58.6000 1 20 -14.3000 58.6000 TC 20 4 126
1981096S14059 1981 27 SI MM LISA 1981-04-06 03:00:00 TS -14.4005 58.7475 main 646 637 P_________P_P_ SH281981 -14.4000 58.7400 20 -1 -14.4016 58.7624 1 20 -14.4000 58.7400 TC 20 4 124
1981096S14059 1981 27 SI MM LISA 1981-04-06 06:00:00 TS -14.5008 58.9100 main 639 630 O_________P_O_ jtwc_sh SH281981 -14.5000 58.9000 20 -1 -14.5025 58.9300 1 20 -14.5000 58.9000 TC 20 4 121
1981096S14059 1981 27 SI MM LISA 1981-04-06 09:00:00 TS -14.6007 59.0975 main 633 624 P_________P_P_ SH281981 -14.6000 59.0925 20 -1 -14.6022 59.1075 1 20 -14.6000 59.0925 TC 20 4 118
1981096S14059 1981 27 SI MM LISA 1981-04-06 12:00:00 TS -14.7000 59.3000 main 627 619 O_________O_O_ jtwc_sh SH281981 -14.7000 59.3000 20 -1 -14.7000 59.3000 1 20 -14.7000 59.3000 TC 20 4 118
1981096S14059 1981 27 SI MM LISA 1981-04-06 15:00:00 TS -14.8031 59.4985 main 623 615 P_________P_P_ SH281981 -14.8075 59.4925 20 -1 -14.7944 59.5106 1 20 -14.8075 59.4925 TC 20 4 116
1981096S14059 1981 27 SI MM LISA 1981-04-06 18:00:00 TS -14.8933 59.7116 main 619 616 O_________P_O_ jtwc_sh SH281981 -14.9000 59.7000 20 -1 -14.8800 59.7349 1 20 -14.9000 59.7000 TC 20 5 110
1981096S14059 1981 27 SI MM LISA 1981-04-06 21:00:00 TS -14.9602 59.9556 main 620 620 P_________P_P_ SH281981 -14.9650 59.9500 20 -1 -14.9506 59.9668 1 20 -14.9650 59.9500 TC 20 5 103
1981096S14059 1981 27 SI MM LISA 1981-04-07 00:00:00 TS -15.0000 60.2000 main 629 629 O_________O_O_ jtwc_sh SH281981 -15.0000 60.2000 20 -1 -15.0000 60.2000 1 20 -15.0000 60.2000 TC 20 4 97
1981096S14059 1981 27 SI MM LISA 1981-04-07 03:00:00 TS -15.0121 60.4084 main 638 638 P_________P_P_ SH281981 -15.0074 60.4000 20 -1 -15.0215 60.4251 1 21 -15.0074 60.4000 TC 20 4 91
1981096S14059 1981 27 SI MM LISA 1981-04-07 06:00:00 TS -15.0075 60.6167 reunion main 648 648 O_________P_O_ jtwc_sh SH281981 -15.0000 60.6000 20 -1 -15.0224 60.6501 1 22 -15.0000 60.6000 TC 20 4 89
1981096S14059 1981 27 SI MM LISA 1981-04-07 09:00:00 TS -15.0041 60.8584 main 663 663 P_________P_P_ SH281981 -15.0000 60.8500 22 -1 -15.0121 60.8751 1 23 -15.0000 60.8500 TC 22 5 89
1981096S14059 1981 27 SI MM LISA 1981-04-07 12:00:00 TS -15.0000 61.1000 reunion main 674 674 O_________O_O_ jtwc_sh SH281981 -15.0000 61.1000 25 -1 -15.0000 61.1000 1 25 -15.0000 61.1000 TC 25 5 87
1981096S14059 1981 27 SI MM LISA 1981-04-07 15:00:00 TS -14.9824 61.3273 main 686 686 P_________P_P_ SH281981 -14.9999 61.3000 25 -1 -14.9473 61.3819 1 26 -14.9999 61.3000 TC 25 4 86
1981096S14059 1981 27 SI MM LISA 1981-04-07 18:00:00 TS -14.9676 61.5516 reunion main 704 704 O_________P_O_ jtwc_sh SH281981 -15.0000 61.5000 25 -1 -14.9027 61.6549 1 27 -15.0000 61.5000 TC 25 5 85
1981096S14059 1981 27 SI MM LISA 1981-04-07 21:00:00 TS -14.9392 61.8629 main 732 730 P_________P_P_ SH281981 -14.9551 61.7726 27 -1 -14.9067 61.8755 1 28 -14.9551 61.7726 TC 27 5 94
1981096S14059 1981 27 SI MM LISA 1981-04-08 00:00:00 TS -15.0000 62.0286 reunion main 730 719 O____O____O_O_ jtwc_sh SH281981 -15.0000 62.0000 30 -1 -15.0000 62.2000 99 9.90000 -15.0000 62.0000 1 30 -15.0000 62.0000 TC 30 4 143
1981096S14059 1981 27 SI MM LISA 1981-04-08 03:00:00 TS -15.2361 62.0948 main 719 687 P____P____P_P_ SH281981 -15.2474 62.1323 30 -1 -15.2001 62.0502 99 -15.2632 62.0647 1 30 -15.2474 62.1323 TC 30 6 0
1981096S14059 1981 27 SI MM LISA 1981-04-08 06:00:00 TS -15.5527 62.0299 reunion main 678 646 O____O____P_O_ jtwc_sh SH281981 -15.6000 62.1000 30 -1 -15.4000 61.9000 2 9.90000 -15.6110 62.0196 1 30 -15.6000 62.1000 TC 30 7 201
1981096S14059 1981 27 SI MM LISA 1981-04-08 09:00:00 TS -15.8838 61.8399 main 639 592 P____P____P_P_ SH281981 -15.9723 61.8977 30 -1 -15.6122 61.7245 2 -15.9784 61.8398 1 30 -15.9723 61.8977 TC 30 8 220
1981096S14059 1981 27 SI MM LISA 1981-04-08 12:00:00 TS -16.2000 61.4750 reunion main 592 541 O____O____O_O_ jtwc_sh SH281981 -16.3000 61.5000 30 -1 -15.9000 61.4000 99 9.90000 -16.3000 61.5000 1 30 -16.3000 61.5000 TC 30 10 237
1981096S14059 1981 27 SI MM LISA 1981-04-08 15:00:00 TS -16.4465 60.9372 main 534 478 P____P____P_P_ SH281981 -16.4874 60.9673 32 -1 -16.3203 60.8028 99 -16.4909 61.0114 1 31 -16.4874 60.9673 TC 32 12 249
1981096S14059 1981 27 SI MM LISA 1981-04-08 18:00:00 TS -16.6563 60.2668 reunion main 468 420 O____O____P_O_ jtwc_sh SH281981 -16.6000 60.3000 35 0 -16.8000 60.1000 99 9.90000 -16.6252 60.3671 1 32 -16.6000 60.3000 TC 35 14 253
1981096S14059 1981 27 SI MM LISA 1981-04-08 21:00:00 TS -16.8558 59.5760 main 410 369 P____P____P_P_ SH281981 -16.7147 59.5949 35 0 -17.2722 59.4998 99 -16.7218 59.6143 1 33 -16.7147 59.5949 TC 35 14 255
1981096S14059 1981 27 SI MM LISA 1981-04-09 00:00:00 TS -17.0250 58.8250 reunion main 365 337 O____O____O_O_ jtwc_sh SH281981 -16.8000 58.8000 35 0 -17.7000 58.9000 99 9.90000 -16.8000 58.8000 2 35 -16.8000 58.8000 TC 35 16 259
1981096S14059 1981 27 SI MM LISA 1981-04-09 03:00:00 TS -17.1473 57.9688 main 337 324 P____P____P_P_ SH281981 -16.8501 57.9073 35 0 -18.0379 58.1826 99 -16.8513 57.8780 2 35 -16.8501 57.9073 TC 35 16 262
1981096S14059 1981 27 SI MM LISA 1981-04-09 06:00:00 TS -17.2484 57.1317 reunion main 327 316 O____O____P_O_ jtwc_sh SH281981 -16.9000 57.0000 35 0 -18.3000 57.6000 3 9.90000 -16.8937 56.9270 2 35 -16.9000 57.0000 TC 35 15 262
1981096S14059 1981 27 SI MM LISA 1981-04-09 09:00:00 TS -17.3585 56.4087 main 323 323 P____P____P_P_ SH281981 -16.9627 56.1025 35 0 -18.5446 57.3672 3 -16.9638 56.0625 2 35 -16.9627 56.1025 TC 35 12 258
1981096S14059 1981 27 SI MM LISA 1981-04-09 12:00:00 TS -17.5000 55.8750 reunion main 336 331 O____O____O_O_ jtwc_sh SH281981 -17.1000 55.4000 35 0 -18.7000 57.3000 99 9.90000 -17.1000 55.4000 2 35 -17.1000 55.4000 TC 35 9 247
1981096S14059 1981 27 SI MM LISA 1981-04-09 15:00:00 TS -17.7044 55.5675 main 334 323 P____P____P_P_ SH281981 -17.3620 55.0226 35 0 -18.7225 57.1849 99 -17.3711 55.0398 2 35 -17.3620 55.0226 TC 35 6 222
1981096S14059 1981 27 SI MM LISA 1981-04-09 18:00:00 TS -17.9525 55.4481 reunion main 322 313 O____O____P_O_ jtwc_sh SH281981 -17.7000 54.9000 35 0 -18.7000 57.1000 99 9.90000 -17.7099 54.8925 2 35 -17.7000 54.9000 TC 35 6 205
1981096S14059 1981 27 SI MM LISA 1981-04-09 21:00:00 TS -18.2030 55.3243 main 313 290 P____P____P_P_ SH281981 -18.0649 54.8898 35 0 -18.7461 57.0350 99 -18.0688 54.8990 2 35 -18.0649 54.8898 TC 35 5 197
1981096S14059 1981 27 SI MM LISA 1981-04-10 00:00:00 TS -18.4571 55.2857 reunion main 279 268 O____O____O_O_ jtwc_sh SH281981 -18.4000 55.0000 35 0 -18.8000 57.0000 99 9.90000 -18.4000 55.0000 2 35 -18.4000 55.0000 TC 35 5 190
1981096S14059 1981 27 SI MM LISA 1981-04-10 03:00:00 TS -18.6575 55.2418 main 257 246 P____P____P_P_ SH281981 -18.6225 55.1275 35 0 -18.7945 57.0203 99 -18.6601 55.0671 2 35 -18.6225 55.1275 TC 35 4 184
1981096S14059 1981 27 SI MM LISA 1981-04-10 06:00:00 TS -18.8274 55.2715 reunion main 246 223 O____P____P_O_ jtwc_sh SH281981 -18.8000 55.3000 35 0 -18.7467 57.0939 99 -18.8822 55.2144 2 35 -18.8000 55.3000 TC 35 4 152
1981096S14059 1981 27 SI MM LISA 1981-04-10 09:00:00 TS -19.0310 55.4566 main 223 201 P____P____P_P_ SH281981 -19.0149 55.4700 35 0 -18.6625 57.2128 99 -19.0632 55.4297 2 35 -19.0149 55.4700 TC 35 6 133
1981096S14059 1981 27 SI MM LISA 1981-04-10 12:00:00 TS -19.2000 55.7000 reunion main 201 180 O____P____O_O_ jtwc_sh SH281981 -19.2000 55.7000 35 0 -18.5478 57.3687 99 -19.2000 55.7000 2 35 -19.2000 55.7000 TC 35 6 119
1981096S14059 1981 27 SI MM LISA 1981-04-10 15:00:00 TS -19.3327 56.0222 main 180 139 P____P____P_P_ SH281981 -19.3300 56.0275 35 0 -18.4087 57.5535 99 -19.3381 56.0115 2 35 -19.3300 56.0275 TC 35 7 108
1981096S14059 1981 27 SI MM LISA 1981-04-10 18:00:00 TS -19.4093 56.3898 reunion main 139 114 O____P____P_O_ jtwc_sh SH281981 -19.4000 56.4000 35 0 -18.2511 57.7591 99 -19.4280 56.3694 2 35 -19.4000 56.4000 TC 35 7 99
1981096S14059 1981 27 SI MM LISA 1981-04-10 21:00:00 TS -19.4479 56.7525 main 107 88 P____P____P_P_ SH281981 -19.4450 56.7574 35 0 -18.0810 57.9774 99 -19.4537 56.7427 2 35 -19.4450 56.7574 TC 35 7 89
1981096S14059 1981 27 SI MM LISA 1981-04-11 00:00:00 TS -19.4000 57.1000 reunion main 88 84 O____P____O_O_ jtwc_sh SH281981 -19.4000 57.1000 35 0 -17.9045 58.2003 99 -19.4000 57.1000 2 35 -19.4000 57.1000 TC 35 7 71
1981096S14059 1981 27 SI MM LISA 1981-04-11 03:00:00 TS -19.2334 57.4105 main 101 100 P____P____P_P_ SH281981 -19.2374 57.4151 35 0 -17.7278 58.4197 99 -19.2254 57.4014 2 36 -19.2374 57.4151 TC 35 7 54
1981096S14059 1981 27 SI MM LISA 1981-04-11 06:00:00 TS -18.9932 57.6937 reunion main 123 123 O____P____P_O_ jtwc_sh SH281981 -19.0000 57.7000 35 0 -17.5569 58.6279 99 -18.9797 57.6810 2 37 -19.0000 57.7000 TC 35 7 45
1981096S14059 1981 27 SI MM LISA 1981-04-11 09:00:00 TS -18.7247 57.9534 main 159 159 P____P____P_P_ SH281981 -18.7274 57.9576 37 0 -17.3980 58.8168 99 -18.7192 57.9451 2 38 -18.7274 57.9576 TC 37 7 44
1981096S14059 1981 27 SI MM LISA 1981-04-11 12:00:00 TS -18.5000 58.2000 reunion main 186 186 O____P____O_O_ jtwc_sh SH281981 -18.5000 58.2000 40 0 -17.2572 58.9786 99 -18.5000 58.2000 2 40 -18.5000 58.2000 TC 40 6 57
1981096S14059 1981 27 SI MM LISA 1981-04-11 15:00:00 TS -18.4186 58.4534 main 207 207 P____P____P_P_ SH281981 -18.4200 58.4499 40 0 -17.1409 59.1057 99 -18.4158 58.4606 2 40 -18.4200 58.4499 TC 40 5 77
1981096S14059 1981 27 SI MM LISA 1981-04-11 18:00:00 TS -18.3925 58.7047 reunion main 217 217 O____P____P_O_ jtwc_sh SH281981 -18.4000 58.7000 40 0 -17.0551 59.1901 99 -18.3774 58.7142 2 40 -18.4000 58.7000 TC 40 5 72
1981096S14059 1981 27 SI MM LISA 1981-04-11 21:00:00 TS -18.2543 58.9923 main 243 243 P____P____P_P_ SH281981 -18.3650 58.9499 40 0 -17.0061 59.2242 99 -18.3502 58.9607 2 40 -18.3650 58.9499 TC 40 5 59
1981096S14059 1981 27 SI MM LISA 1981-04-12 00:00:00 TS -18.1143 59.2000 reunion main 273 273 O____O____O_O_ jtwc_sh SH281981 -18.3000 59.2000 40 0 -17.0000 59.2000 99 9.90000 -18.3000 59.2000 2 40 -18.3000 59.2000 TC 40 5 51
1981096S14059 1981 27 SI MM LISA 1981-04-12 03:00:00 TS -17.9478 59.3853 main 304 304 P____P____P_P_ SH281981 -18.1650 59.4575 37 0 -17.0538 59.0985 99 -18.1870 59.4772 2 38 -18.1650 59.4575 TC 37 5 44
1981096S14059 1981 27 SI MM LISA 1981-04-12 06:00:00 TS -17.7863 59.5351 reunion main 319 319 O____O____P_O_ jtwc_sh SH281981 -18.0000 59.7000 35 0 -17.1000 59.0000 3 9.90000 -18.0452 59.7405 2 37 -18.0000 59.7000 TC 35 4 47
1981096S14059 1981 27 SI MM LISA 1981-04-12 09:00:00 TS -17.6739 59.6902 main 341 341 P____P____P_P_ SH281981 -17.8575 59.9300 35 0 -17.1000 58.9425 3 -17.8807 59.9585 2 36 -17.8575 59.9300 TC 35 3 47
1981096S14059 1981 27 SI MM LISA 1981-04-12 12:00:00 TS -17.5500 59.8000 reunion main 365 356 O____O____O_O_ jtwc_sh SH281981 -17.7000 60.1000 35 0 -17.1000 58.9000 99 9.90000 -17.7000 60.1000 2 35 -17.7000 60.1000 TC 35 3 31
1981096S14059 1981 27 SI MM LISA 1981-04-12 15:00:00 TS -17.4101 59.8560 main 380 380 P____P____P_P_ SH281981 -17.5075 60.2025 35 0 -17.1275 58.8575 99 -17.4979 60.1614 2 35 -17.5075 60.2025 TC 35 3 9
1981096S14059 1981 27 SI MM LISA 1981-04-12 18:00:00 TS -17.2712 59.8356 reunion main 383 383 O____O____P_O_ jtwc_sh SH281981 -17.3000 60.2000 35 0 -17.2000 58.8000 99 9.90000 -17.2846 60.1422 2 35 -17.3000 60.2000 TC 35 3 338
1981096S14059 1981 27 SI MM LISA 1981-04-12 21:00:00 TS -17.1292 59.7336 main 396 390 P____P____P_P_ SH281981 -17.0850 60.0949 35 0 -17.2675 58.6925 99 -17.0791 60.0520 2 35 -17.0850 60.0949 TC 35 3 312
1981096S14059 1981 27 SI MM LISA 1981-04-13 00:00:00 TS -17.0500 59.5750 reunion main 400 380 O____O____O_O_ jtwc_sh SH281981 -16.9000 59.9000 35 0 -17.5000 58.6000 99 9.90000 -16.9000 59.9000 2 35 -16.9000 59.9000 TC 35 3 265
1981096S14059 1981 27 SI MM LISA 1981-04-13 03:00:00 TS -17.1545 59.4216 main 370 360 P____P____P_P_ SH281981 -16.7850 59.6650 35 0 -18.2723 58.6530 99 -16.7755 59.7034 2 35 -16.7850 59.6650 TC 35 4 247
1981096S14059 1981 27 SI MM LISA 1981-04-13 06:00:00 TS -17.1944 59.2131 reunion main 360 360 O____O____P_O_ jtwc_sh SH281981 -16.7000 59.4000 35 0 -18.7000 58.6000 2 9.90000 -16.6777 59.4525 2 35 -16.7000 59.4000 TC 35 6 297
1981096S14059 1981 27 SI MM LISA 1981-04-13 09:00:00 TS -16.9010 58.9038 main 379 379 P____P____P_P_ SH281981 -16.6075 59.1425 35 0 -17.7980 58.1548 2 -16.5911 59.1754 2 35 -16.6075 59.1425 TC 35 9 318
1981096S14059 1981 27 SI MM LISA 1981-04-13 12:00:00 TS -16.5500 58.6000 reunion main 413 411 O____O____O_O_ jtwc_sh SH281981 -16.5000 58.9000 35 0 -16.7000 57.7000 99 9.90000 -16.5000 58.9000 2 35 -16.5000 58.9000 TC 35 7 317
1981096S14059 1981 27 SI MM LISA 1981-04-13 15:00:00 TS -16.3972 58.4165 main 420 418 P____P____P_P_ SH281981 -16.3499 58.7000 35 0 -16.5149 57.5984 99 -16.3740 58.6678 2 33 -16.3499 58.7000 TC 35 4 306
1981096S14059 1981 27 SI MM LISA 1981-04-13 18:00:00 TS -16.3106 58.2606 reunion main 429 427 O____O____P_O_ jtwc_sh SH281981 -16.2000 58.5000 35 0 -16.6000 57.6000 99 9.90000 -16.2424 58.4425 2 32 -16.2000 58.5000 TC 35 4 298
1981096S14059 1981 27 SI MM LISA 1981-04-13 21:00:00 TS -16.2074 58.0496 main 437 436 P____P____P_P_ SH281981 -16.0925 58.2500 32 -1 -16.5300 57.4774 99 -16.1146 58.2209 2 31 -16.0925 58.2500 TC 32 4 298
1981096S14059 1981 27 SI MM LISA 1981-04-14 00:00:00 TS -16.1000 57.8500 reunion main 448 447 O____O____O_O_ jtwc_sh SH281981 -16.0000 58.0000 30 -1 -16.4000 57.4000 99 9.90000 -16.0000 58.0000 1 30 -16.0000 58.0000 TC 30 4 309
1981096S14059 1981 27 SI MM LISA 1981-04-14 03:00:00 TS -15.9544 57.7269 main 458 458 P____P____P_P_ SH281981 -15.8924 57.8000 27 -1 -16.1275 57.5302 99 -15.9054 57.7772 1 27 -15.8924 57.8000 TC 27 4 316
1981096S14059 1981 27 SI MM LISA 1981-04-14 06:00:00 TS -15.8372 57.5890 reunion main 481 481 O____O____P_O_ jtwc_sh SH281981 -15.8000 57.6000 25 -1 -15.9000 57.6000 2 9.90000 -15.8277 57.5525 1 25 -15.8000 57.6000 TC 25 4 289
1981096S14059 1981 27 SI MM LISA 1981-04-14 09:00:00 TS -15.8194 57.3303 main 481 471 P____P____P_P_ SH281981 -15.7401 57.3625 22 -1 -15.9277 57.3001 2 -15.7611 57.3265 1 22 -15.7401 57.3625 TC 22 5 266
1981096S14059 1981 27 SI MM LISA 1981-04-14 12:00:00 TS -15.8714 57.0429 reunion main 472 471 O____O____O_O_ jtwc_sh SH281981 -15.7000 57.1000 20 -1 -16.0000 57.0000 99 9.90000 -15.7000 57.1000 1 20 -15.7000 57.1000 TC 20 3 251
1981096S14059 1981 27 SI MM LISA 1981-04-14 15:00:00 NR -15.9075 57.0701 main 471 471 _____P________ SH281981 -1 -15.9075 57.0701 99 1 TC 2 65
1981096S14059 1981 27 SI MM LISA 1981-04-14 18:00:00 NR -15.8000 57.2000 reunion main 482 482 _____O________ -1 -15.8000 57.2000 99 9.90000 1 2 25
1981096S14059 1981 27 SI MM LISA 1981-04-14 21:00:00 NR -15.7249 57.1598 main 493 484 _____P________ -1 -15.7249 57.1598 99 1 2 270
1981096S14059 1981 27 SI MM LISA 1981-04-15 00:00:00 NR -15.8000 57.0000 reunion main 484 444 _____O________ -1 -15.8000 57.0000 99 9.90000 6 223
1981096S14059 1981 27 SI MM LISA 1981-04-15 03:00:00 NR -16.1926 56.7080 main 444 408 _____P________ -1 -16.1926 56.7080 99 10 216
1981096S14059 1981 27 SI MM LISA 1981-04-15 06:00:00 TS -16.6000 56.4000 reunion main 408 400 _____O________ -1 -16.6000 56.4000 2 9.90000 7 222
1981096S14059 1981 27 SI MM LISA 1981-04-15 09:00:00 TS -16.7399 56.1973 main 404 404 _____P________ -1 -16.7399 56.1973 2 3 251
1981096S14059 1981 27 SI MM LISA 1981-04-15 12:00:00 NR -16.7000 56.1000 reunion main 408 408 _____O________ -1 -16.7000 56.1000 99 9.90000 2 341
1981096S14059 1981 27 SI MM LISA 1981-04-15 15:00:00 NR -16.5150 56.1125 main 429 429 _____P________ -1 -16.5150 56.1125 99 4 13
1981096S14059 1981 27 SI MM LISA 1981-04-15 18:00:00 NR -16.3000 56.2000 reunion main 446 446 _____O________ -1 -16.3000 56.2000 99 9.90000 4 30
1981096S14059 1981 27 SI MM LISA 1981-04-15 21:00:00 NR -16.2075 56.3000 main 454 451 _____P________ -1 -16.2075 56.3000 99 2 63
1981096S14059 1981 27 SI MM LISA 1981-04-16 00:00:00 TS -16.2000 56.4000 reunion main 451 _____O________ -1 -16.2000 56.4000 6 9.90000 2 86

IBTrACS Databaseについて

本データベースは、米国NOAAが公開する1842年以降の世界の熱帯低気圧のベストトラックデータアーカイブInternational Best Track Archive for Climate Stewardship (IBTrACS)を、ウェブで閲覧しやすい形式に変換したものです。

最終更新日:2021-12-01